createdAt,value
2022-11-21T00:00:07.368Z,-1.83
2022-11-21T00:01:07.363Z,-1.83
2022-11-21T00:02:07.448Z,-1.67
2022-11-21T00:03:07.356Z,-1.67
2022-11-21T00:04:07.362Z,-1.67
2022-11-21T00:05:07.371Z,-1.67
2022-11-21T00:06:07.372Z,-1.67
2022-11-21T00:07:07.436Z,-1.44
2022-11-21T00:08:07.375Z,-1.28
2022-11-21T00:09:07.375Z,-1.28
2022-11-21T00:10:07.377Z,-1.28
2022-11-21T00:11:07.378Z,-1.56
2022-11-21T00:12:07.367Z,-1.44
2022-11-21T00:13:07.370Z,-1.28
2022-11-21T00:14:07.367Z,-1.56
2022-11-21T00:15:07.378Z,-1.11
2022-11-21T00:16:07.377Z,-1.11
2022-11-21T00:17:07.367Z,-1
2022-11-21T00:18:07.367Z,-1.11
2022-11-21T00:19:07.375Z,-1
2022-11-21T00:20:07.382Z,-1.11
2022-11-21T00:21:07.374Z,-1.11
2022-11-21T00:22:07.372Z,-0.83
2022-11-21T00:23:07.370Z,-1.28
2022-11-21T00:24:07.374Z,-1.44
2022-11-21T00:25:07.381Z,-1.56
2022-11-21T00:26:07.382Z,-1.44
2022-11-21T00:27:07.379Z,-1.56
2022-11-21T00:28:07.385Z,-1.67
2022-11-21T00:29:07.384Z,-1.67
2022-11-21T00:30:07.382Z,-2
2022-11-21T00:31:07.383Z,-1.44
2022-11-21T00:32:07.387Z,-1.28
2022-11-21T00:33:07.394Z,-1.28
2022-11-21T00:34:07.384Z,-1.28
2022-11-21T00:35:07.399Z,-0.67
2022-11-21T00:36:07.409Z,-0.67
2022-11-21T00:37:07.385Z,-0.83
2022-11-21T00:38:07.402Z,-0.83
2022-11-21T00:39:07.396Z,-0.83
2022-11-21T00:40:07.393Z,-0.83
2022-11-21T00:41:07.400Z,-1
2022-11-21T00:42:07.388Z,-1
2022-11-21T00:43:07.398Z,-1.28
2022-11-21T00:44:07.394Z,-1
2022-11-21T00:45:07.403Z,-0.83
2022-11-21T00:46:07.398Z,-0.83
2022-11-21T00:47:07.398Z,-0.83
2022-11-21T00:48:07.405Z,-0.83
2022-11-21T00:49:07.406Z,-1
2022-11-21T00:50:07.425Z,-1
2022-11-21T00:51:07.399Z,-0.83
2022-11-21T00:52:07.400Z,-0.83
2022-11-21T00:53:07.473Z,-1.28
2022-11-21T00:54:07.415Z,-0.83
2022-11-21T00:55:07.403Z,-1
2022-11-21T00:56:07.399Z,-1.28
2022-11-21T00:57:07.408Z,-1.28
2022-11-21T00:58:07.404Z,-1.11
2022-11-21T00:59:07.424Z,-1.11
2022-11-21T01:00:07.402Z,-1
2022-11-21T01:01:07.453Z,-0.83
2022-11-21T01:02:07.416Z,-1
2022-11-21T01:03:07.418Z,-0.83
2022-11-21T01:04:07.400Z,-0.83
2022-11-21T01:05:07.407Z,-0.83
2022-11-21T01:06:07.409Z,-1.28
2022-11-21T01:07:07.481Z,-1
2022-11-21T01:08:07.420Z,-0.83
2022-11-21T01:09:07.412Z,-0.83
2022-11-21T01:10:07.419Z,-0.83
2022-11-21T01:11:07.426Z,-1
2022-11-21T01:12:07.408Z,-1.11
2022-11-21T01:13:07.449Z,-1.28
2022-11-21T01:14:07.434Z,-0.83
2022-11-21T01:15:07.411Z,-1
2022-11-21T01:16:07.419Z,-0.83
2022-11-21T01:17:07.417Z,-0.83
2022-11-21T01:18:07.424Z,-0.83
2022-11-21T01:19:07.427Z,-0.83
2022-11-21T01:20:07.422Z,-0.56
2022-11-21T01:21:07.415Z,-0.83
2022-11-21T01:22:07.414Z,-0.67
2022-11-21T01:23:07.423Z,-0.83
2022-11-21T01:24:07.430Z,-0.67
2022-11-21T01:25:07.421Z,-0.39
2022-11-21T01:26:07.447Z,-0.67
2022-11-21T01:27:07.425Z,-0.56
2022-11-21T01:28:07.472Z,-1
2022-11-21T01:29:07.446Z,-0.67
2022-11-21T01:30:07.416Z,-0.67
2022-11-21T01:31:07.425Z,-0.83
2022-11-21T01:32:07.409Z,-1
2022-11-21T01:33:07.430Z,-0.67
2022-11-21T01:34:07.405Z,-0.83
2022-11-21T01:35:07.429Z,-0.39
2022-11-21T01:36:07.431Z,-0.67
2022-11-21T01:37:07.429Z,-0.56
2022-11-21T01:38:07.409Z,-0.56
2022-11-21T01:39:07.427Z,-0.56
2022-11-21T01:40:07.417Z,-0.67
2022-11-21T01:41:07.419Z,-0.83
2022-11-21T01:42:07.435Z,-1
2022-11-21T01:43:07.471Z,-1.11
2022-11-21T01:44:07.438Z,-1
2022-11-21T01:45:07.440Z,-1.67
2022-11-21T01:46:07.411Z,-0.83
2022-11-21T01:47:07.429Z,-0.67
2022-11-21T01:48:07.427Z,-1.28
2022-11-21T01:49:07.429Z,-1.11
2022-11-21T01:50:11.857Z,-0.83
2022-11-21T01:51:07.422Z,-0.83
2022-11-21T01:52:07.420Z,-0.67
2022-11-21T01:53:07.436Z,-0.67
2022-11-21T01:54:07.426Z,-0.67
2022-11-21T01:55:07.422Z,-0.83
2022-11-21T01:56:07.442Z,-0.83
2022-11-21T01:57:07.434Z,-0.83
2022-11-21T01:58:07.429Z,-1.11
2022-11-21T01:59:07.440Z,-1
2022-11-21T02:00:07.435Z,-0.39
2022-11-21T02:01:07.558Z,-0.56
2022-11-21T02:02:07.430Z,-0.39
2022-11-21T02:03:07.448Z,-0.39
2022-11-21T02:04:07.451Z,-0.56
2022-11-21T02:05:07.451Z,-0.39
2022-11-21T02:06:07.439Z,-0.56
2022-11-21T02:07:07.494Z,-0.56
2022-11-21T02:08:07.454Z,-1
2022-11-21T02:09:07.442Z,-1
2022-11-21T02:10:07.447Z,-0.83
2022-11-21T02:11:07.449Z,-0.67
2022-11-21T02:12:07.449Z,-0.56
2022-11-21T02:13:07.455Z,-0.56
2022-11-21T02:14:07.460Z,-0.39
2022-11-21T02:15:07.439Z,-0.67
2022-11-21T02:16:07.460Z,-0.83
2022-11-21T02:17:07.484Z,-0.39
2022-11-21T02:18:07.464Z,-0.39
2022-11-21T02:19:07.471Z,-0.83
2022-11-21T02:20:07.457Z,-0.67
2022-11-21T02:21:07.461Z,-0.56
2022-11-21T02:22:07.464Z,-0.56
2022-11-21T02:23:07.455Z,-1
2022-11-21T02:24:07.463Z,-1.11
2022-11-21T02:25:07.468Z,-1.44
2022-11-21T02:26:07.462Z,-1.11
2022-11-21T02:27:07.463Z,-0.83
2022-11-21T02:28:07.477Z,-1
2022-11-21T02:29:07.479Z,-1.28
2022-11-21T02:30:07.465Z,-1
2022-11-21T02:31:07.482Z,-1
2022-11-21T02:32:07.478Z,-1.11
2022-11-21T02:33:07.506Z,-1.44
2022-11-21T02:34:07.496Z,-1
2022-11-21T02:35:07.477Z,-1.11
2022-11-21T02:36:07.479Z,-1.11
2022-11-21T02:37:07.482Z,-1
2022-11-21T02:38:07.487Z,-0.83
2022-11-21T02:39:07.493Z,-1.28
2022-11-21T02:40:07.502Z,-0.83
2022-11-21T02:41:07.483Z,-1.44
2022-11-21T02:42:07.490Z,-1
2022-11-21T02:43:07.485Z,-0.83
2022-11-21T02:44:07.482Z,-1
2022-11-21T02:45:07.484Z,-0.83
2022-11-21T02:46:07.493Z,-1
2022-11-21T02:47:07.491Z,-0.83
2022-11-21T02:48:07.494Z,-1
2022-11-21T02:49:07.509Z,-0.83
2022-11-21T02:50:07.501Z,-0.83
2022-11-21T02:51:07.499Z,-0.83
2022-11-21T02:52:07.499Z,-0.83
2022-11-21T02:53:07.502Z,-1
2022-11-21T02:54:07.497Z,-1
2022-11-21T02:55:07.501Z,-0.67
2022-11-21T02:56:07.502Z,-0.56
2022-11-21T02:57:07.514Z,-0.67
2022-11-21T02:58:07.510Z,-0.83
2022-11-21T02:59:07.506Z,-1
2022-11-21T03:00:07.512Z,-0.67
2022-11-21T03:01:07.529Z,-0.56
2022-11-21T03:02:07.513Z,-0.83
2022-11-21T03:03:07.513Z,-1
2022-11-21T03:04:07.496Z,-0.83
2022-11-21T03:05:07.545Z,-0.56
2022-11-21T03:06:07.531Z,-1
2022-11-21T03:07:07.518Z,-0.83
2022-11-21T03:08:07.520Z,-0.56
2022-11-21T03:09:07.518Z,-0.83
2022-11-21T03:10:07.514Z,-0.39
2022-11-21T03:11:07.519Z,-0.56
2022-11-21T03:12:07.526Z,-0.39
2022-11-21T03:13:07.526Z,-0.67
2022-11-21T03:14:07.577Z,-0.67
2022-11-21T03:15:07.535Z,-0.39
2022-11-21T03:16:07.518Z,-0.28
2022-11-21T03:17:07.528Z,-0.28
2022-11-21T03:18:07.520Z,-0.56
2022-11-21T03:19:07.521Z,-0.39
2022-11-21T03:20:07.516Z,-1
2022-11-21T03:21:07.553Z,-0.56
2022-11-21T03:22:07.532Z,-0.39
2022-11-21T03:23:07.526Z,-0.39
2022-11-21T03:24:07.526Z,-0.56
2022-11-21T03:25:07.531Z,-0.39
2022-11-21T03:26:07.532Z,-0.39
2022-11-21T03:27:07.534Z,-0.39
2022-11-21T03:28:07.521Z,-0.39
2022-11-21T03:29:07.535Z,-0.39
2022-11-21T03:30:07.538Z,-0.67
2022-11-21T03:31:07.550Z,-0.67
2022-11-21T03:32:07.541Z,-0.56
2022-11-21T03:33:07.557Z,-0.56
2022-11-21T03:34:07.535Z,-0.39
2022-11-21T03:35:07.545Z,-1
2022-11-21T03:36:07.531Z,-0.67
2022-11-21T03:37:07.562Z,-0.39
2022-11-21T03:38:07.549Z,-0.56
2022-11-21T03:39:07.539Z,-0.39
2022-11-21T03:40:07.550Z,-0.67
2022-11-21T03:41:07.559Z,-0.39
2022-11-21T03:42:07.532Z,-0.83
2022-11-21T03:43:07.550Z,-0.67
2022-11-21T03:44:07.554Z,-0.39
2022-11-21T03:45:07.555Z,-0.67
2022-11-21T03:46:07.546Z,-0.83
2022-11-21T03:47:07.564Z,-1
2022-11-21T03:48:07.553Z,-0.67
2022-11-21T03:49:07.557Z,-0.39
2022-11-21T03:50:07.552Z,-0.39
2022-11-21T03:51:07.553Z,-1.11
2022-11-21T03:52:07.558Z,-1.28
2022-11-21T03:53:07.582Z,-0.67
2022-11-21T03:54:07.564Z,-0.83
2022-11-21T03:55:07.557Z,-0.83
2022-11-21T03:56:07.558Z,-0.56
2022-11-21T03:57:07.559Z,-1
2022-11-21T03:58:07.573Z,-0.83
2022-11-21T03:59:07.560Z,-0.39
2022-11-21T04:00:07.574Z,-1.28
2022-11-21T04:01:07.622Z,-1.56
2022-11-21T04:02:07.570Z,-0.83
2022-11-21T04:03:07.568Z,-0.67
2022-11-21T04:04:07.569Z,-0.67
2022-11-21T04:05:07.574Z,-0.83
2022-11-21T04:06:07.577Z,-0.83
2022-11-21T04:07:07.616Z,-1.11
2022-11-21T04:08:07.584Z,-0.67
2022-11-21T04:09:07.591Z,-0.83
2022-11-21T04:10:07.580Z,-0.83
2022-11-21T04:11:07.577Z,-0.83
2022-11-21T04:12:08.094Z,-0.56
2022-11-21T04:13:07.580Z,-1
2022-11-21T04:14:07.575Z,-1.28
2022-11-21T04:15:12.228Z,-0.83
2022-11-21T04:16:07.580Z,-0.83
2022-11-21T04:17:07.595Z,-1.28
2022-11-21T04:18:07.577Z,-0.56
2022-11-21T04:19:07.586Z,-0.39
2022-11-21T04:20:07.602Z,-0.56
2022-11-21T04:21:07.575Z,-0.56
2022-11-21T04:22:07.589Z,-1
2022-11-21T04:23:07.592Z,-0.67
2022-11-21T04:24:07.584Z,-0.83
2022-11-21T04:25:07.603Z,-0.67
2022-11-21T04:26:07.590Z,-0.56
2022-11-21T04:27:07.587Z,-0.83
2022-11-21T04:28:07.583Z,-0.83
2022-11-21T04:29:07.598Z,-0.83
2022-11-21T04:30:07.598Z,-1.28
2022-11-21T04:31:10.622Z,-0.83
2022-11-21T04:32:07.576Z,-1.11
2022-11-21T04:33:07.602Z,-1.28
2022-11-21T04:34:07.595Z,-0.83
2022-11-21T04:35:07.583Z,-1
2022-11-21T04:36:07.598Z,-1.11
2022-11-21T04:37:11.510Z,-1.44
2022-11-21T04:38:07.603Z,-1.28
2022-11-21T04:39:07.613Z,-1.28
2022-11-21T04:40:07.598Z,-1.44
2022-11-21T04:41:07.618Z,-1.44
2022-11-21T04:42:07.604Z,-1.56
2022-11-21T04:43:07.601Z,-1.11
2022-11-21T04:44:07.595Z,-1.28
2022-11-21T04:45:07.599Z,-1.56
2022-11-21T04:46:07.610Z,-1.44
2022-11-21T04:47:07.606Z,-1.28
2022-11-21T04:48:07.606Z,-1.44
2022-11-21T04:49:07.608Z,-1.28
2022-11-21T04:50:07.611Z,-1.67
2022-11-21T04:51:07.597Z,-1.28
2022-11-21T04:52:07.614Z,-1.28
2022-11-21T04:53:07.612Z,-1.44
2022-11-21T04:54:07.607Z,-1.11
2022-11-21T04:55:07.626Z,-1.28
2022-11-21T04:56:07.621Z,-1.28
2022-11-21T04:57:07.634Z,-1.11
2022-11-21T04:58:07.609Z,-1.67
2022-11-21T04:59:07.610Z,-1.44
2022-11-21T05:00:07.611Z,-1.56
2022-11-21T05:01:07.641Z,-1.56
2022-11-21T05:02:07.617Z,-1.83
2022-11-21T05:03:07.617Z,-1.56
2022-11-21T05:04:07.616Z,-1.56
2022-11-21T05:05:07.614Z,-1.56
2022-11-21T05:06:07.615Z,-1.56
2022-11-21T05:07:07.667Z,-1.67
2022-11-21T05:08:07.618Z,-1.83
2022-11-21T05:09:07.620Z,-2.17
2022-11-21T05:10:07.626Z,-1.83
2022-11-21T05:11:07.624Z,-1.83
2022-11-21T05:12:07.621Z,-1.67
2022-11-21T05:13:07.759Z,-1.28
2022-11-21T05:14:07.647Z,-1.28
2022-11-21T05:15:07.631Z,-1.28
2022-11-21T05:16:07.629Z,-1.28
2022-11-21T05:17:07.629Z,-1.44
2022-11-21T05:18:07.627Z,-1.83
2022-11-21T05:19:07.637Z,-2
2022-11-21T05:20:07.625Z,-2
2022-11-21T05:21:07.630Z,-1.67
2022-11-21T05:22:07.635Z,-1.67
2022-11-21T05:23:07.620Z,-1.44
2022-11-21T05:24:07.626Z,-1.28
2022-11-21T05:25:07.617Z,-1.44
2022-11-21T05:26:07.627Z,-1.56
2022-11-21T05:27:07.624Z,-1.67
2022-11-21T05:28:07.616Z,-1.28
2022-11-21T05:29:07.648Z,-1.44
2022-11-21T05:30:07.623Z,-1.28
2022-11-21T05:31:07.639Z,-1.44
2022-11-21T05:32:07.626Z,-1.67
2022-11-21T05:33:07.626Z,-2.17
2022-11-21T05:34:07.624Z,-1.67
2022-11-21T05:35:07.629Z,-2
2022-11-21T05:36:07.632Z,-2
2022-11-21T05:37:07.630Z,-1.83
2022-11-21T05:38:07.625Z,-1.67
2022-11-21T05:39:07.633Z,-1.44
2022-11-21T05:40:07.632Z,-1.28
2022-11-21T05:41:07.632Z,-1.28
2022-11-21T05:42:07.640Z,-1.44
2022-11-21T05:43:07.634Z,-1.56
2022-11-21T05:44:07.644Z,-1.83
2022-11-21T05:45:07.660Z,-1.67
2022-11-21T05:46:07.638Z,-1.67
2022-11-21T05:47:07.636Z,-1.67
2022-11-21T05:48:07.654Z,-1.67
2022-11-21T05:49:07.643Z,-1.83
2022-11-21T05:50:07.637Z,-1.56
2022-11-21T05:51:07.645Z,-1.67
2022-11-21T05:52:07.650Z,-1.83
2022-11-21T05:53:07.642Z,-1.56
2022-11-21T05:54:07.635Z,-1.67
2022-11-21T05:55:07.637Z,-1.44
2022-11-21T05:56:07.644Z,-1.28
2022-11-21T05:57:07.638Z,-1.28
2022-11-21T05:58:07.657Z,-1.28
2022-11-21T05:59:07.659Z,-0.83
2022-11-21T06:00:07.652Z,-0.83
2022-11-21T06:01:07.672Z,-1
2022-11-21T06:02:07.652Z,-1
2022-11-21T06:03:07.683Z,-1.56
2022-11-21T06:04:07.647Z,-1.28
2022-11-21T06:05:07.665Z,-1.56
2022-11-21T06:06:07.648Z,-1.56
2022-11-21T06:07:07.673Z,-1.11
2022-11-21T06:08:07.651Z,-1.44
2022-11-21T06:09:07.667Z,-1.28
2022-11-21T06:10:07.642Z,-1.11
2022-11-21T06:11:07.651Z,-1
2022-11-21T06:12:07.650Z,-1
2022-11-21T06:13:07.655Z,-0.83
2022-11-21T06:14:07.653Z,-1.11
2022-11-21T06:15:07.653Z,-1
2022-11-21T06:16:07.653Z,-1
2022-11-21T06:17:07.671Z,-1.11
2022-11-21T06:18:07.658Z,-1.11
2022-11-21T06:19:07.651Z,-1.11
2022-11-21T06:20:07.661Z,-1
2022-11-21T06:21:07.648Z,-1.11
2022-11-21T06:22:07.652Z,-0.83
2022-11-21T06:23:07.656Z,-1
2022-11-21T06:24:07.656Z,-0.83
2022-11-21T06:25:07.655Z,-0.83
2022-11-21T06:26:07.644Z,-1.28
2022-11-21T06:27:07.658Z,-1.67
2022-11-21T06:28:07.660Z,-2
2022-11-21T06:29:07.652Z,-1.67
2022-11-21T06:30:07.660Z,-2.17
2022-11-21T06:31:07.654Z,-1.83
2022-11-21T06:32:07.651Z,-1.67
2022-11-21T06:33:07.684Z,-2
2022-11-21T06:34:07.647Z,-2
2022-11-21T06:35:07.658Z,-1.67
2022-11-21T06:36:07.649Z,-2
2022-11-21T06:37:07.664Z,-1.67
2022-11-21T06:38:07.658Z,-1.44
2022-11-21T06:39:07.650Z,-1.28
2022-11-21T06:40:07.649Z,-1.44
2022-11-21T06:41:07.659Z,-1.28
2022-11-21T06:42:07.656Z,-1.83
2022-11-21T06:43:07.662Z,-1.44
2022-11-21T06:44:07.651Z,-1.44
2022-11-21T06:45:07.657Z,-1.44
2022-11-21T06:46:07.667Z,-1.28
2022-11-21T06:47:07.657Z,-1.28
2022-11-21T06:48:07.664Z,-1.28
2022-11-21T06:49:07.683Z,-1.56
2022-11-21T06:50:07.672Z,-1.28
2022-11-21T06:51:07.663Z,-1.28
2022-11-21T06:52:07.659Z,-1.28
2022-11-21T06:53:07.672Z,-1.11
2022-11-21T06:54:07.671Z,-1
2022-11-21T06:55:07.671Z,-1
2022-11-21T06:56:07.678Z,-1
2022-11-21T06:57:07.662Z,-1
2022-11-21T06:58:07.675Z,-0.83
2022-11-21T06:59:07.690Z,-0.67
2022-11-21T07:00:07.691Z,-0.67
2022-11-21T07:01:07.761Z,-1
2022-11-21T07:02:07.684Z,-1
2022-11-21T07:03:07.694Z,-0.83
2022-11-21T07:04:07.701Z,-0.67
2022-11-21T07:05:07.721Z,-0.67
2022-11-21T07:06:07.707Z,-0.83
2022-11-21T07:07:07.750Z,-0.83
2022-11-21T07:08:12.980Z,-1.28
2022-11-21T07:10:07.704Z,-0.39
2022-11-21T07:11:24.391Z,-0.67
2022-11-21T07:12:07.707Z,-0.56
2022-11-21T07:13:07.698Z,-0.83
2022-11-21T07:14:09.225Z,-0.39
2022-11-21T07:15:07.702Z,-0.56
2022-11-21T07:16:07.707Z,-0.67
2022-11-21T07:17:07.713Z,-0.39
2022-11-21T07:18:07.712Z,-0.56
2022-11-21T07:19:07.741Z,-0.56
2022-11-21T07:20:07.716Z,-0.56
2022-11-21T07:21:07.743Z,-0.67
2022-11-21T07:22:07.720Z,-0.39
2022-11-21T07:23:07.721Z,-0.56
2022-11-21T07:24:07.724Z,-0.56
2022-11-21T07:25:07.728Z,-0.67
2022-11-21T07:26:07.726Z,-0.17
2022-11-21T07:27:07.732Z,-0.17
2022-11-21T07:28:07.734Z,-0.39
2022-11-21T07:29:07.727Z,-0.17
2022-11-21T07:30:07.732Z,-0.17
2022-11-21T07:31:13.098Z,-0.17
2022-11-21T07:32:07.735Z,0.17
2022-11-21T07:33:07.735Z,0
2022-11-21T07:34:07.732Z,0.44
2022-11-21T07:35:07.752Z,0.17
2022-11-21T07:36:07.741Z,0.28
2022-11-21T07:37:07.751Z,0
2022-11-21T07:38:07.736Z,0
2022-11-21T07:39:07.738Z,0
2022-11-21T07:40:07.738Z,0
2022-11-21T07:41:07.735Z,0
2022-11-21T07:42:07.732Z,-0.28
2022-11-21T07:43:10.766Z,-0.39
2022-11-21T07:44:07.743Z,-0.56
2022-11-21T07:45:07.741Z,-1
2022-11-21T07:46:07.742Z,-0.83
2022-11-21T07:47:07.742Z,-0.83
2022-11-21T07:48:07.749Z,-1
2022-11-21T07:49:07.770Z,-0.67
2022-11-21T07:50:07.758Z,-1
2022-11-21T07:51:07.755Z,-0.67
2022-11-21T07:52:07.739Z,-0.39
2022-11-21T07:53:07.779Z,-0.67
2022-11-21T07:54:07.766Z,-0.67
2022-11-21T07:55:07.756Z,-0.67
2022-11-21T07:56:07.753Z,-0.83
2022-11-21T07:57:07.756Z,-0.83
2022-11-21T07:58:07.756Z,-0.83
2022-11-21T07:59:07.760Z,-0.83
2022-11-21T08:00:07.760Z,-0.83
2022-11-21T08:01:07.761Z,-1
2022-11-21T08:02:07.798Z,-1
2022-11-21T08:03:07.771Z,-0.67
2022-11-21T08:04:07.765Z,-0.67
2022-11-21T08:05:07.772Z,-0.56
2022-11-21T08:06:07.774Z,-0.56
2022-11-21T08:07:07.794Z,-0.56
2022-11-21T08:08:07.773Z,-0.39
2022-11-21T08:09:07.795Z,-0.67
2022-11-21T08:10:07.778Z,-0.83
2022-11-21T08:11:07.783Z,-0.67
2022-11-21T08:12:07.785Z,-0.67
2022-11-21T08:13:07.790Z,-1.11
2022-11-21T08:14:07.785Z,-0.39
2022-11-21T08:15:07.823Z,-0.39
2022-11-21T08:16:07.779Z,-0.17
2022-11-21T08:17:07.790Z,-0.56
2022-11-21T08:18:07.789Z,-0.28
2022-11-21T08:19:07.814Z,0
2022-11-21T08:20:07.799Z,-0.17
2022-11-21T08:21:07.790Z,-0.17
2022-11-21T08:22:07.806Z,0
2022-11-21T08:23:07.814Z,-0.17
2022-11-21T08:24:07.805Z,0
2022-11-21T08:25:07.824Z,0
2022-11-21T08:26:07.807Z,0
2022-11-21T08:27:07.810Z,-0.17
2022-11-21T08:28:07.812Z,0
2022-11-21T08:29:07.805Z,0
2022-11-21T08:30:07.824Z,-0.17
2022-11-21T08:31:07.810Z,0
2022-11-21T08:32:07.816Z,-0.28
2022-11-21T08:33:07.811Z,0
2022-11-21T08:34:11.636Z,0.44
2022-11-21T08:35:07.814Z,0
2022-11-21T08:36:07.820Z,0.44
2022-11-21T08:37:07.810Z,0.44
2022-11-21T08:38:07.831Z,0.17
2022-11-21T08:39:07.827Z,0.28
2022-11-21T08:40:07.828Z,0.17
2022-11-21T08:41:07.862Z,0.28
2022-11-21T08:42:07.827Z,0.28
2022-11-21T08:43:07.831Z,0.28
2022-11-21T08:44:12.690Z,-0.17
2022-11-21T08:45:07.836Z,0.44
2022-11-21T08:46:07.829Z,0.44
2022-11-21T08:47:07.843Z,0.28
2022-11-21T08:48:07.842Z,0.44
2022-11-21T08:49:07.835Z,0.44
2022-11-21T08:50:09.209Z,0.61
2022-11-21T08:51:07.837Z,0.44
2022-11-21T08:52:07.840Z,0.61
2022-11-21T08:53:07.848Z,0.44
2022-11-21T08:54:07.856Z,0.28
2022-11-21T08:55:07.856Z,0.44
2022-11-21T08:56:07.860Z,0.28
2022-11-21T08:57:08.056Z,0.44
2022-11-21T08:58:07.857Z,0.28
2022-11-21T08:59:07.863Z,0.44
2022-11-21T09:00:07.860Z,0.28
2022-11-21T09:01:07.870Z,0.17
2022-11-21T09:02:07.910Z,0.28
2022-11-21T09:03:07.874Z,0
2022-11-21T09:04:07.863Z,0.28
2022-11-21T09:05:07.863Z,0.17
2022-11-21T09:06:07.869Z,0.28
2022-11-21T09:07:07.924Z,0.28
2022-11-21T09:08:07.888Z,0.44
2022-11-21T09:09:07.873Z,0.28
2022-11-21T09:10:07.877Z,0.44
2022-11-21T09:11:07.876Z,0.44
2022-11-21T09:12:07.873Z,0.44
2022-11-21T09:13:07.901Z,0.44
2022-11-21T09:14:07.884Z,0.44
2022-11-21T09:15:07.876Z,0.17
2022-11-21T09:16:07.892Z,0.44
2022-11-21T09:17:07.909Z,0.44
2022-11-21T09:18:07.884Z,0.17
2022-11-21T09:19:07.894Z,0.17
2022-11-21T09:20:07.939Z,0.44
2022-11-21T09:21:07.895Z,0.28
2022-11-21T09:22:07.886Z,0.28
2022-11-21T09:23:07.889Z,0.28
2022-11-21T09:24:07.885Z,0.28
2022-11-21T09:25:07.897Z,0.44
2022-11-21T09:26:07.898Z,0.44
2022-11-21T09:27:07.901Z,0.28
2022-11-21T09:28:07.901Z,0.28
2022-11-21T09:29:07.917Z,0.44
2022-11-21T09:30:07.890Z,0.44
2022-11-21T09:31:07.895Z,0.44
2022-11-21T09:32:07.902Z,0.44
2022-11-21T09:33:07.911Z,0.44
2022-11-21T09:34:07.907Z,0.44
2022-11-21T09:35:07.902Z,0
2022-11-21T09:36:07.904Z,0
2022-11-21T09:37:07.897Z,0.17
2022-11-21T09:38:07.916Z,-0.17
2022-11-21T09:39:07.926Z,0.28
2022-11-21T09:40:07.919Z,0.28
2022-11-21T09:41:07.906Z,0.28
2022-11-21T09:42:07.917Z,0.44
2022-11-21T09:43:07.911Z,0.17
2022-11-21T09:44:07.912Z,0.89
2022-11-21T09:45:07.937Z,0.72
2022-11-21T09:46:07.930Z,0.61
2022-11-21T09:47:07.917Z,0.72
2022-11-21T09:48:07.921Z,0.72
2022-11-21T09:49:07.933Z,1.06
2022-11-21T09:50:07.924Z,1.17
2022-11-21T09:51:07.937Z,1.72
2022-11-21T09:52:07.929Z,1.89
2022-11-21T09:53:07.924Z,2.17
2022-11-21T09:54:07.929Z,2.17
2022-11-21T09:55:07.924Z,2
2022-11-21T09:56:07.931Z,1.61
2022-11-21T09:57:07.929Z,2.28
2022-11-21T09:58:07.938Z,2.17
2022-11-21T09:59:07.933Z,2.17
2022-11-21T10:00:07.929Z,1.72
2022-11-21T10:01:08.036Z,1.72
2022-11-21T10:02:07.935Z,1.89
2022-11-21T10:03:07.947Z,2.17
2022-11-21T10:04:07.938Z,1.72
2022-11-21T10:05:07.941Z,1.72
2022-11-21T10:06:07.941Z,1.61
2022-11-21T10:07:07.986Z,1.72
2022-11-21T10:08:07.948Z,1.72
2022-11-21T10:09:07.947Z,1.89
2022-11-21T10:10:07.940Z,2
2022-11-21T10:11:16.244Z,1.61
2022-11-21T10:12:07.949Z,1.72
2022-11-21T10:13:07.952Z,1.72
2022-11-21T10:14:07.948Z,1.5
2022-11-21T10:15:07.949Z,1.06
2022-11-21T10:16:07.944Z,1.33
2022-11-21T10:17:07.980Z,1.33
2022-11-21T10:18:07.949Z,1.5
2022-11-21T10:19:07.959Z,1.72
2022-11-21T10:20:07.951Z,1.72
2022-11-21T10:21:07.955Z,2
2022-11-21T10:22:07.952Z,2.17
2022-11-21T10:23:07.956Z,1.89
2022-11-21T10:24:07.951Z,2.17
2022-11-21T10:25:07.962Z,2.28
2022-11-21T10:26:07.964Z,2.28
2022-11-21T10:27:07.960Z,2.17
2022-11-21T10:28:07.959Z,2.17
2022-11-21T10:29:07.955Z,2.17
2022-11-21T10:30:07.957Z,2.17
2022-11-21T10:31:07.959Z,2.17
2022-11-21T10:32:07.962Z,2
2022-11-21T10:33:07.981Z,1.61
2022-11-21T10:34:07.964Z,1.33
2022-11-21T10:35:07.972Z,1.17
2022-11-21T10:36:07.964Z,0.44
2022-11-21T10:37:11.742Z,0.44
2022-11-21T10:38:07.973Z,1.33
2022-11-21T10:39:07.962Z,1.72
2022-11-21T10:40:07.975Z,1.61
2022-11-21T10:41:07.971Z,2
2022-11-21T10:42:07.963Z,0.89
2022-11-21T10:43:07.968Z,1.33
2022-11-21T10:44:07.975Z,1.72
2022-11-21T10:45:07.966Z,1.61
2022-11-21T10:46:07.975Z,1.72
2022-11-21T10:47:07.970Z,1.5
2022-11-21T10:48:08.350Z,1.33
2022-11-21T10:49:07.995Z,1.06
2022-11-21T10:50:07.974Z,1.06
2022-11-21T10:51:07.969Z,1.06
2022-11-21T10:52:07.967Z,1.17
2022-11-21T10:53:07.976Z,1.33
2022-11-21T10:54:08.311Z,1.61
2022-11-21T10:55:07.966Z,1.33
2022-11-21T10:56:07.973Z,1.33
2022-11-21T10:57:07.975Z,1.33
2022-11-21T10:58:07.966Z,1.33
2022-11-21T10:59:07.963Z,1.33
2022-11-21T11:00:07.974Z,1.33
2022-11-21T11:01:08.076Z,0.72
2022-11-21T11:02:07.969Z,1.17
2022-11-21T11:03:07.979Z,1.33
2022-11-21T11:04:26.539Z,1.5
2022-11-21T11:05:08.016Z,1.33
2022-11-21T11:06:07.977Z,1.33
2022-11-21T11:07:08.054Z,1.33
2022-11-21T11:08:07.994Z,1.33
2022-11-21T11:09:07.973Z,1.61
2022-11-21T11:10:07.969Z,1.61
2022-11-21T11:11:07.974Z,1.72
2022-11-21T11:12:07.979Z,2.17
2022-11-21T11:13:24.182Z,2.28
2022-11-21T11:14:07.973Z,2.17
2022-11-21T11:15:07.965Z,2.28
2022-11-21T11:16:07.979Z,2.17
2022-11-21T11:17:07.978Z,2
2022-11-21T11:18:09.727Z,2.17
2022-11-21T11:19:07.979Z,2.17
2022-11-21T11:20:07.984Z,2.17
2022-11-21T11:21:08.006Z,2.17
2022-11-21T11:22:08.001Z,1.89
2022-11-21T11:23:07.985Z,2.28
2022-11-21T11:24:07.984Z,1.89
2022-11-21T11:25:07.988Z,1.89
2022-11-21T11:26:07.985Z,2.17
2022-11-21T11:27:07.987Z,1.61
2022-11-21T11:28:07.984Z,1.33
2022-11-21T11:29:07.992Z,1.33
2022-11-21T11:30:07.994Z,1.33
2022-11-21T11:31:07.995Z,1.33
2022-11-21T11:32:08.007Z,1.33
2022-11-21T11:33:07.991Z,0.89
2022-11-21T11:34:07.998Z,0.89
2022-11-21T11:35:07.994Z,1.17
2022-11-21T11:36:07.994Z,1.17
2022-11-21T11:37:08.018Z,1.33
2022-11-21T11:38:08.000Z,1.33
2022-11-21T11:39:08.002Z,1.17
2022-11-21T11:40:08.010Z,1.61
2022-11-21T11:41:07.996Z,2.17
2022-11-21T11:42:10.267Z,2
2022-11-21T11:43:08.002Z,1.89
2022-11-21T11:44:08.006Z,1.5
2022-11-21T11:45:08.009Z,1.17
2022-11-21T11:46:08.000Z,1.17
2022-11-21T11:47:08.009Z,1.5
2022-11-21T11:48:08.025Z,1.61
2022-11-21T11:49:23.431Z,1.61
2022-11-21T11:50:08.016Z,1.72
2022-11-21T11:51:08.012Z,1.89
2022-11-21T11:52:08.009Z,1.89
2022-11-21T11:53:08.044Z,1.72
2022-11-21T11:54:08.012Z,1.72
2022-11-21T11:55:08.014Z,1.72
2022-11-21T11:56:08.021Z,1.17
2022-11-21T11:57:08.014Z,0.72
2022-11-21T11:58:08.020Z,1.17
2022-11-21T11:59:08.027Z,1.33
2022-11-21T12:00:08.028Z,1.61
2022-11-21T12:01:08.022Z,1.72
2022-11-21T12:02:11.743Z,1.61
2022-11-21T12:03:08.030Z,1.61
2022-11-21T12:04:08.022Z,1.5
2022-11-21T12:05:08.034Z,1.06
2022-11-21T12:06:09.555Z,1.33
2022-11-21T12:09:08.092Z,1.61
2022-11-21T12:10:08.033Z,1.72
2022-11-21T12:11:08.029Z,2.17
2022-11-21T12:12:08.038Z,2.28
2022-11-21T12:13:08.036Z,2.28
2022-11-21T12:14:08.040Z,2.17
2022-11-21T12:15:08.036Z,2.17
2022-11-21T12:16:13.020Z,2.89
2022-11-21T12:17:08.045Z,4
2022-11-21T12:18:08.040Z,4.28
2022-11-21T12:19:08.042Z,4.28
2022-11-21T12:20:08.041Z,4.44
2022-11-21T12:21:08.046Z,5.17
2022-11-21T12:22:08.051Z,5
2022-11-21T12:23:08.048Z,5.17
2022-11-21T12:24:08.051Z,4
2022-11-21T12:25:08.084Z,3.72
2022-11-21T12:26:08.064Z,3.56
2022-11-21T12:27:08.057Z,3.72
2022-11-21T12:28:08.063Z,3.83
2022-11-21T12:29:08.059Z,3.72
2022-11-21T12:30:08.069Z,3.72
2022-11-21T12:31:08.058Z,4.17
2022-11-21T12:32:08.064Z,3.83
2022-11-21T12:33:09.104Z,4.17
2022-11-21T12:34:08.055Z,4.28
2022-11-21T12:35:08.058Z,3.72
2022-11-21T12:36:17.126Z,2.72
2022-11-21T12:37:08.062Z,2.61
2022-11-21T12:38:08.065Z,2.17
2022-11-21T12:39:08.063Z,2
2022-11-21T12:40:08.059Z,1.89
2022-11-21T12:41:08.103Z,2.61
2022-11-21T12:42:08.071Z,2.61
2022-11-21T12:43:08.076Z,3
2022-11-21T12:44:08.072Z,2.72
2022-11-21T12:45:08.067Z,2.61
2022-11-21T12:46:08.077Z,2.89
2022-11-21T12:47:08.080Z,2.61
2022-11-21T12:48:08.076Z,2.72
2022-11-21T12:49:08.070Z,2.61
2022-11-21T12:50:08.079Z,2.72
2022-11-21T12:51:08.078Z,3.56
2022-11-21T12:52:08.084Z,3.44
2022-11-21T12:53:08.083Z,3.44
2022-11-21T12:54:08.093Z,4
2022-11-21T12:55:08.090Z,4.17
2022-11-21T12:56:08.093Z,3.56
2022-11-21T12:57:08.111Z,3.56
2022-11-21T12:58:08.089Z,3.83
2022-11-21T12:59:08.093Z,3.83
2022-11-21T13:00:08.089Z,3.44
2022-11-21T13:01:08.126Z,3.33
2022-11-21T13:02:08.093Z,3
2022-11-21T13:03:08.092Z,3.17
2022-11-21T13:04:08.094Z,3.44
2022-11-21T13:05:08.102Z,3.83
2022-11-21T13:06:08.101Z,4.44
2022-11-21T13:07:08.133Z,5.33
2022-11-21T13:08:08.096Z,4.89
2022-11-21T13:09:08.102Z,5.17
2022-11-21T13:10:08.100Z,6
2022-11-21T13:11:08.103Z,5.61
2022-11-21T13:12:08.109Z,5
2022-11-21T13:13:08.142Z,3.44
2022-11-21T13:14:08.108Z,2.72
2022-11-21T13:15:08.105Z,2.28